createdAt,value
2018-10-21T00:00:29.505Z,6.57
2018-10-21T00:02:56.955Z,7.00
2018-10-21T00:05:24.316Z,6.70
2018-10-21T00:07:51.709Z,6.90
2018-10-21T00:10:19.073Z,7.47
2018-10-21T00:12:46.460Z,6.77
2018-10-21T00:15:13.973Z,7.23
2018-10-21T00:17:41.325Z,7.67
2018-10-21T00:20:09.069Z,7.83
2018-10-21T00:22:36.572Z,7.90
2018-10-21T00:25:04.469Z,8.37
2018-10-21T00:27:31.837Z,8.23
2018-10-21T00:29:59.225Z,9.23
2018-10-21T00:32:31.884Z,7.50
2018-10-21T00:34:59.328Z,7.80
2018-10-21T00:37:26.674Z,8.17
2018-10-21T00:39:54.031Z,8.30
2018-10-21T00:42:21.440Z,8.53
2018-10-21T00:44:48.949Z,8.27
2018-10-21T00:47:16.298Z,8.80
2018-10-21T00:49:43.684Z,8.83
2018-10-21T00:52:11.056Z,8.23
2018-10-21T00:54:38.404Z,9.00
2018-10-21T00:57:05.811Z,9.80
2018-10-21T00:59:33.164Z,8.13
2018-10-21T01:02:00.509Z,8.10
2018-10-21T01:04:27.940Z,8.57
2018-10-21T01:06:55.326Z,7.70
2018-10-21T01:09:22.821Z,8.43
2018-10-21T01:11:50.229Z,8.47
2018-10-21T01:14:17.586Z,8.20
2018-10-21T01:16:44.964Z,8.63
2018-10-21T01:19:12.353Z,8.13
2018-10-21T01:21:39.712Z,8.13
2018-10-21T01:24:07.121Z,7.60
2018-10-21T01:26:34.796Z,8.20
2018-10-21T01:29:02.243Z,8.07
2018-10-21T01:31:29.597Z,7.90
2018-10-21T01:33:57.078Z,7.83
2018-10-21T01:36:24.600Z,7.77
2018-10-21T01:38:51.812Z,8.10
2018-10-21T01:41:19.338Z,8.13
2018-10-21T01:43:46.684Z,7.50
2018-10-21T01:46:14.035Z,8.10
2018-10-21T01:48:41.427Z,7.77
2018-10-21T01:51:08.844Z,7.93
2018-10-21T01:53:36.147Z,7.93
2018-10-21T01:56:03.572Z,7.77
2018-10-21T01:58:30.938Z,7.20
2018-10-21T02:00:58.669Z,8.50
2018-10-21T02:03:26.055Z,7.70
2018-10-21T02:05:53.473Z,7.43
2018-10-21T02:08:20.861Z,7.70
2018-10-21T02:10:48.315Z,6.83
2018-10-21T02:13:15.734Z,7.83
2018-10-21T02:15:43.097Z,7.40
2018-10-21T02:18:10.488Z,7.90
2018-10-21T02:20:37.836Z,7.23
2018-10-21T02:23:05.271Z,7.23
2018-10-21T02:25:32.696Z,7.20
2018-10-21T02:28:00.040Z,7.63
2018-10-21T02:30:28.397Z,7.00
2018-10-21T02:32:56.463Z,6.50
2018-10-21T02:35:23.897Z,6.97
2018-10-21T02:37:51.841Z,7.13
2018-10-21T02:41:24.657Z,7.73
2018-10-21T02:43:52.005Z,7.17
2018-10-21T02:46:20.077Z,7.60
2018-10-21T02:48:47.477Z,7.80
2018-10-21T02:51:14.938Z,7.10
2018-10-21T02:53:42.340Z,6.33
2018-10-21T02:56:10.756Z,7.60
2018-10-21T02:58:38.708Z,6.63
2018-10-21T03:01:06.125Z,7.00
2018-10-21T03:03:33.728Z,7.07
2018-10-21T03:06:01.165Z,7.10
2018-10-21T03:08:28.520Z,7.17
2018-10-21T03:10:55.927Z,7.80
2018-10-21T03:13:23.644Z,8.13
2018-10-21T03:15:51.069Z,9.50
2018-10-21T03:18:18.503Z,9.13
2018-10-21T03:20:45.871Z,9.40
2018-10-21T03:23:13.578Z,9.47
2018-10-21T03:25:41.238Z,9.10
2018-10-21T03:28:08.600Z,9.27
2018-10-21T03:30:36.145Z,9.57
2018-10-21T03:33:03.578Z,8.83
2018-10-21T03:35:31.097Z,9.93
2018-10-21T03:37:58.697Z,9.50
2018-10-21T03:40:26.081Z,9.47
2018-10-21T03:42:53.913Z,9.53
2018-10-21T03:45:21.281Z,10.13
2018-10-21T03:47:48.958Z,9.63
2018-10-21T03:50:16.417Z,8.97
2018-10-21T03:52:43.764Z,9.30
2018-10-21T03:55:11.156Z,9.43
2018-10-21T03:57:38.581Z,9.43
2018-10-21T04:00:06.676Z,10.23
2018-10-21T04:02:34.058Z,10.57
2018-10-21T04:05:01.410Z,9.80
2018-10-21T04:07:28.789Z,10.70
2018-10-21T04:09:56.218Z,10.27
2018-10-21T04:12:23.583Z,10.33
2018-10-21T04:14:50.938Z,10.93
2018-10-21T04:17:18.336Z,10.80
2018-10-21T04:19:45.694Z,11.03
2018-10-21T04:22:13.091Z,11.00
2018-10-21T04:24:40.452Z,11.83
2018-10-21T04:27:07.806Z,11.03
2018-10-21T04:29:35.180Z,11.43
2018-10-21T04:32:02.581Z,12.07
2018-10-21T04:34:29.932Z,11.87
2018-10-21T04:37:02.752Z,11.40
2018-10-21T04:40:34.340Z,11.23
2018-10-21T04:43:01.724Z,11.27
2018-10-21T04:45:29.077Z,12.23
2018-10-21T04:47:56.421Z,11.37
2018-10-21T04:50:23.805Z,11.97
2018-10-21T04:52:51.228Z,11.17
2018-10-21T04:55:18.605Z,10.77
2018-10-21T04:57:47.117Z,11.17
2018-10-21T05:00:17.232Z,10.37
2018-10-21T05:02:44.625Z,11.17
2018-10-21T05:05:13.180Z,10.63
2018-10-21T05:07:40.870Z,9.87
2018-10-21T05:10:11.696Z,9.67
2018-10-21T05:12:39.029Z,9.23
2018-10-21T05:15:06.464Z,9.03
2018-10-21T05:17:33.804Z,9.23
2018-10-21T05:20:01.175Z,9.37
2018-10-21T05:22:28.533Z,9.03
2018-10-21T05:24:55.942Z,9.30
2018-10-21T05:27:23.314Z,9.97
2018-10-21T05:29:50.668Z,9.40
2018-10-21T05:32:18.011Z,9.73
2018-10-21T05:34:45.610Z,9.90
2018-10-21T05:37:13.005Z,9.90
2018-10-21T05:39:40.365Z,9.87
2018-10-21T05:42:07.766Z,9.60
2018-10-21T05:44:35.176Z,9.57
2018-10-21T05:47:02.590Z,9.00
2018-10-21T05:49:29.957Z,9.30
2018-10-21T05:51:57.395Z,9.40
2018-10-21T05:54:24.753Z,9.13
2018-10-21T05:56:52.127Z,9.13
2018-10-21T05:59:19.537Z,7.87
2018-10-21T06:01:47.676Z,9.00
2018-10-21T06:04:16.062Z,9.47
2018-10-21T06:06:43.624Z,10.23
2018-10-21T06:09:12.337Z,13.20
2018-10-21T06:11:39.854Z,12.73
2018-10-21T06:14:07.345Z,8.23
2018-10-21T06:17:10.294Z,10.50
2018-10-21T06:19:42.634Z,10.00
2018-10-21T06:22:10.294Z,8.50
2018-10-21T06:24:37.617Z,9.57
2018-10-21T06:27:05.169Z,8.87
2018-10-21T06:29:32.561Z,8.17
2018-10-21T06:31:59.928Z,8.67
2018-10-21T06:34:27.301Z,8.57
2018-10-21T06:36:54.858Z,8.30
2018-10-21T06:39:22.221Z,7.93
2018-10-21T06:41:49.601Z,8.70
2018-10-21T06:44:17.129Z,10.60
2018-10-21T06:46:44.496Z,10.40
2018-10-21T06:49:11.857Z,10.63
2018-10-21T06:51:39.345Z,9.47
2018-10-21T06:54:06.765Z,10.90
2018-10-21T06:56:34.255Z,10.03
2018-10-21T06:59:01.526Z,10.77
2018-10-21T07:01:29.582Z,9.60
2018-10-21T07:03:57.073Z,10.50
2018-10-21T07:06:26.381Z,9.47
2018-10-21T07:08:55.956Z,9.77
2018-10-21T07:11:23.358Z,11.77
2018-10-21T07:13:50.753Z,11.57
2018-10-21T07:16:18.299Z,12.40
2018-10-21T07:25:33.018Z,8.77
2018-10-21T07:28:00.521Z,10.80
2018-10-21T07:30:29.133Z,13.10
2018-10-21T07:32:57.997Z,10.90
2018-10-21T07:35:25.566Z,12.37
2018-10-21T07:37:52.951Z,11.87
2018-10-21T07:40:20.359Z,15.33
2018-10-21T07:42:47.770Z,25.87
2018-10-21T07:45:17.765Z,22.80
2018-10-21T07:47:45.158Z,16.37
2018-10-21T07:50:12.517Z,11.67
2018-10-21T07:52:39.929Z,12.93
2018-10-21T07:55:07.426Z,12.37
2018-10-21T07:57:34.819Z,10.80
2018-10-21T08:00:02.214Z,11.73
2018-10-21T08:02:29.635Z,12.90
2018-10-21T08:04:57.086Z,14.73
2018-10-21T08:07:29.961Z,12.93
2018-10-21T08:09:57.505Z,13.40
2018-10-21T08:12:24.885Z,14.20
2018-10-21T08:14:52.426Z,15.07
2018-10-21T08:17:19.710Z,13.50
2018-10-21T08:19:47.077Z,16.93
2018-10-21T08:22:14.553Z,14.73
2018-10-21T08:24:41.950Z,16.20
2018-10-21T08:27:09.356Z,14.93
2018-10-21T08:29:36.761Z,15.57
2018-10-21T08:32:04.130Z,13.90
2018-10-21T08:34:31.485Z,15.90
2018-10-21T08:36:58.876Z,14.03
2018-10-21T08:39:26.353Z,13.73
2018-10-21T08:41:53.849Z,20.00
2018-10-21T08:44:21.254Z,23.23
2018-10-21T08:46:48.619Z,17.23
2018-10-21T08:49:16.071Z,23.00
2018-10-21T08:51:43.633Z,13.63
2018-10-21T08:54:11.000Z,37.97
2018-10-21T08:56:38.377Z,12.50
2018-10-21T08:59:05.798Z,105.93
2018-10-21T09:01:33.170Z,29.67
2018-10-21T09:04:00.621Z,13.97
2018-10-21T09:06:28.018Z,12.70
2018-10-21T09:08:55.410Z,13.57
2018-10-21T09:11:22.786Z,10.87
2018-10-21T09:13:50.316Z,11.77
2018-10-21T09:16:17.782Z,11.67
2018-10-21T09:18:45.073Z,12.47
2018-10-21T09:21:12.449Z,12.03
2018-10-21T09:23:39.853Z,11.47
2018-10-21T09:26:07.318Z,11.37
2018-10-21T09:28:34.795Z,10.70
2018-10-21T09:31:02.214Z,12.20
2018-10-21T09:33:29.657Z,11.20
2018-10-21T09:35:57.040Z,20.03
2018-10-21T09:38:24.532Z,19.97
2018-10-21T09:40:52.014Z,15.43
2018-10-21T09:43:19.416Z,27.90
2018-10-21T09:45:46.903Z,12.60
2018-10-21T09:48:14.333Z,12.43
2018-10-21T09:50:41.760Z,11.37
2018-10-21T09:53:09.247Z,11.37
2018-10-21T09:55:36.638Z,13.17
2018-10-21T09:58:04.258Z,13.30
2018-10-21T10:00:36.983Z,10.87
2018-10-21T10:03:06.665Z,11.40
2018-10-21T10:05:34.037Z,12.70
2018-10-21T10:08:01.421Z,11.53
2018-10-21T10:10:29.135Z,11.00
2018-10-21T10:12:56.617Z,11.27
2018-10-21T10:15:23.993Z,15.27
2018-10-21T10:17:51.442Z,19.17
2018-10-21T10:20:18.902Z,22.37
2018-10-21T10:22:46.372Z,12.20
2018-10-21T10:25:13.938Z,12.80
2018-10-21T10:27:41.728Z,12.87
2018-10-21T10:30:10.608Z,12.60
2018-10-21T10:32:38.384Z,14.10
2018-10-21T10:35:06.267Z,12.97
2018-10-21T10:37:33.624Z,14.37
2018-10-21T10:40:01.069Z,14.27
2018-10-21T10:42:28.486Z,14.50
2018-10-21T10:44:55.852Z,13.63
2018-10-21T10:47:23.296Z,12.90
2018-10-21T10:49:50.677Z,13.80
2018-10-21T10:52:18.110Z,14.00
2018-10-21T11:10:39.533Z,15.20
2018-10-21T11:13:07.042Z,15.00
2018-10-21T11:15:34.401Z,15.10
2018-10-21T11:18:01.856Z,13.57
2018-10-21T11:20:29.236Z,12.40
2018-10-21T11:22:56.727Z,11.83
2018-10-21T11:25:24.092Z,13.27
2018-10-21T11:27:51.645Z,12.80
2018-10-21T11:30:20.068Z,12.57
2018-10-21T11:32:47.893Z,12.63
2018-10-21T11:35:15.336Z,13.23
2018-10-21T11:37:42.731Z,11.60
2018-10-21T11:40:10.246Z,11.27
2018-10-21T11:42:37.569Z,11.80
2018-10-21T11:45:05.801Z,12.00
2018-10-21T11:47:33.369Z,11.37
2018-10-21T11:50:00.749Z,11.53
2018-10-21T11:52:28.193Z,11.77
2018-10-21T11:54:55.636Z,12.10
2018-10-21T11:57:23.437Z,12.30
2018-10-21T11:59:50.945Z,12.20
2018-10-21T12:02:18.457Z,11.73
2018-10-21T12:04:46.282Z,22.53
2018-10-21T12:07:13.843Z,12.03
2018-10-21T12:09:41.240Z,11.97
2018-10-21T12:12:08.729Z,11.17
2018-10-21T12:14:36.222Z,10.87
2018-10-21T12:17:03.654Z,11.47
2018-10-21T12:19:31.140Z,11.63
2018-10-21T12:21:58.565Z,12.00
2018-10-21T12:24:25.957Z,11.90
2018-10-21T12:26:53.342Z,13.70
2018-10-21T12:29:20.805Z,14.10
2018-10-21T12:31:48.117Z,12.63
2018-10-21T12:34:15.606Z,13.00
2018-10-21T12:36:42.936Z,12.83
2018-10-21T12:39:11.322Z,12.57
2018-10-21T12:41:39.252Z,15.60
2018-10-21T12:44:06.629Z,12.90
2018-10-21T12:46:34.034Z,13.87
2018-10-21T12:49:01.546Z,13.23
2018-10-21T12:51:28.894Z,14.23
2018-10-21T12:53:56.474Z,12.70
2018-10-21T12:56:23.865Z,12.37
2018-10-21T12:58:51.212Z,13.00
2018-10-21T13:01:18.724Z,12.90
2018-10-21T13:03:46.137Z,12.23
2018-10-21T13:06:13.549Z,11.17
2018-10-21T13:08:40.998Z,14.17
2018-10-21T13:11:08.532Z,12.53
2018-10-21T13:13:36.326Z,12.83
2018-10-21T13:16:03.757Z,13.53
2018-10-21T13:18:31.197Z,13.93
2018-10-21T13:20:58.740Z,12.67
2018-10-21T13:23:26.127Z,11.57
2018-10-21T13:25:53.474Z,13.00
2018-10-21T13:28:21.065Z,12.33
2018-10-21T13:30:48.390Z,13.20
2018-10-21T13:33:15.925Z,16.73
2018-10-21T13:35:43.425Z,15.97
2018-10-21T13:38:11.169Z,12.40
2018-10-21T13:40:38.588Z,13.73
2018-10-21T13:43:06.049Z,14.37
2018-10-21T13:45:33.444Z,13.70
2018-10-21T13:48:00.866Z,13.37
2018-10-21T13:50:28.335Z,11.60
2018-10-21T13:52:55.830Z,11.97
2018-10-21T13:55:23.181Z,12.40
2018-10-21T13:57:50.584Z,13.97
2018-10-21T14:00:18.033Z,13.13
2018-10-21T14:02:45.448Z,13.77
2018-10-21T14:05:12.837Z,14.67
2018-10-21T14:07:40.389Z,12.83
2018-10-21T14:10:08.025Z,14.20
2018-10-21T14:12:35.436Z,13.77
2018-10-21T14:15:03.175Z,12.67
2018-10-21T14:17:30.677Z,14.07
2018-10-21T14:19:58.113Z,13.77
2018-10-21T14:22:25.548Z,13.23
2018-10-21T14:24:53.040Z,14.07
2018-10-21T14:27:20.404Z,13.50
2018-10-21T14:29:47.872Z,13.90
2018-10-21T14:32:15.201Z,14.63
2018-10-21T14:34:42.629Z,14.43
2018-10-21T14:37:10.043Z,15.67
2018-10-21T14:39:37.461Z,13.93
2018-10-21T14:42:05.160Z,14.60
2018-10-21T14:44:32.532Z,15.00
2018-10-21T14:47:00.155Z,16.20
2018-10-21T14:49:27.521Z,15.33
2018-10-21T14:51:55.024Z,13.47
2018-10-21T14:54:22.414Z,13.93
2018-10-21T14:56:49.830Z,13.83
2018-10-21T14:59:17.270Z,14.10
2018-10-21T15:01:44.820Z,13.77
2018-10-21T15:04:12.351Z,14.57
2018-10-21T15:06:39.878Z,14.63
2018-10-21T15:09:09.260Z,18.13
2018-10-21T15:11:36.666Z,17.47
2018-10-21T15:14:04.292Z,15.67
2018-10-21T15:16:31.901Z,14.80
2018-10-21T15:18:59.553Z,15.90
2018-10-21T15:21:27.812Z,16.27
2018-10-21T15:23:55.661Z,17.43
2018-10-21T15:26:23.652Z,18.13
2018-10-21T15:28:51.201Z,17.73
2018-10-21T15:31:18.589Z,17.37
2018-10-21T15:33:46.117Z,17.43
2018-10-21T15:36:13.554Z,17.17
2018-10-21T15:38:40.932Z,18.23
2018-10-21T15:41:08.637Z,18.93
2018-10-21T15:43:36.022Z,18.23
2018-10-21T15:46:03.520Z,17.87
2018-10-21T15:48:30.990Z,18.13
2018-10-21T15:50:58.466Z,18.27
2018-10-21T15:53:25.961Z,17.40
2018-10-21T15:55:53.360Z,20.60
2018-10-21T15:58:20.915Z,19.43
2018-10-21T16:00:48.397Z,21.60
2018-10-21T16:03:15.958Z,22.50
2018-10-21T16:05:43.380Z,22.47
2018-10-21T16:08:10.780Z,24.13
2018-10-21T16:10:38.166Z,23.77
2018-10-21T16:13:06.403Z,22.10
2018-10-21T16:15:33.990Z,22.47
2018-10-21T16:18:01.702Z,20.93
2018-10-21T16:20:29.220Z,23.50
2018-10-21T16:22:56.629Z,22.07
2018-10-21T16:25:24.050Z,24.00
2018-10-21T16:27:51.817Z,22.50
2018-10-21T16:30:19.181Z,23.83
2018-10-21T16:32:46.659Z,23.77
2018-10-21T16:35:14.378Z,23.73
2018-10-21T16:37:41.989Z,23.17
2018-10-21T16:40:11.437Z,27.77
2018-10-21T16:42:39.758Z,25.87
2018-10-21T16:45:07.777Z,27.17
2018-10-21T16:47:36.433Z,25.63
2018-10-21T16:50:04.967Z,24.53
2018-10-21T16:52:33.387Z,24.77
2018-10-21T16:55:02.167Z,29.77
2018-10-21T16:57:30.887Z,25.37
2018-10-21T16:59:59.514Z,26.47
2018-10-21T17:02:28.448Z,30.00
2018-10-21T17:04:57.096Z,30.70
2018-10-21T17:07:25.335Z,30.90
2018-10-21T17:09:54.366Z,30.90
2018-10-21T17:12:22.898Z,31.87
2018-10-21T17:14:50.621Z,31.00
2018-10-21T17:17:18.503Z,31.03
2018-10-21T17:19:45.977Z,32.50
2018-10-21T17:22:13.564Z,34.97
2018-10-21T17:24:40.941Z,35.70
2018-10-21T17:27:09.441Z,34.30
2018-10-21T17:29:36.857Z,34.30
2018-10-21T17:32:04.247Z,32.80
2018-10-21T17:34:31.721Z,32.70
2018-10-21T17:36:59.199Z,36.13
2018-10-21T17:39:26.634Z,35.47
2018-10-21T17:41:54.216Z,34.90
2018-10-21T17:44:21.624Z,35.63
2018-10-21T17:46:49.110Z,33.03
2018-10-21T17:49:16.552Z,34.63
2018-10-21T17:51:44.106Z,31.83
2018-10-21T17:54:11.501Z,30.67
2018-10-21T17:56:44.361Z,30.80
2018-10-21T17:59:11.993Z,32.03
2018-10-21T18:01:39.420Z,79.17
2018-10-21T18:04:07.080Z,63.00
2018-10-21T18:06:34.555Z,46.77
2018-10-21T18:09:01.937Z,44.60
2018-10-21T18:11:29.720Z,33.57
2018-10-21T18:13:57.437Z,32.73
2018-10-21T18:16:24.969Z,32.60
2018-10-21T18:18:52.471Z,34.53
2018-10-21T18:21:20.045Z,34.50
2018-10-21T18:23:47.592Z,35.03
2018-10-21T18:26:15.254Z,31.47
2018-10-21T18:28:42.629Z,33.57
2018-10-21T18:31:10.257Z,34.57
2018-10-21T18:33:37.733Z,32.23
2018-10-21T18:36:05.374Z,35.80
2018-10-21T18:38:33.088Z,34.83
2018-10-21T18:41:00.586Z,32.70
2018-10-21T18:43:28.122Z,33.90
2018-10-21T18:45:55.583Z,30.90
2018-10-21T18:48:23.065Z,32.43
2018-10-21T18:50:50.566Z,31.33
2018-10-21T18:53:18.193Z,31.67
2018-10-21T18:55:45.621Z,31.67
2018-10-21T18:58:13.076Z,33.17
2018-10-21T19:00:40.658Z,31.57
2018-10-21T19:03:08.089Z,33.77
2018-10-21T19:05:35.699Z,45.23
2018-10-21T19:08:03.287Z,39.50
2018-10-21T19:10:31.657Z,34.40
2018-10-21T19:13:00.056Z,34.57
2018-10-21T19:15:26.672Z,33.73
2018-10-21T19:17:54.255Z,32.40
2018-10-21T19:20:21.767Z,31.93
2018-10-21T19:22:49.365Z,33.83
2018-10-21T19:25:17.315Z,31.50
2018-10-21T19:27:45.477Z,31.90
2018-10-21T19:30:13.560Z,32.33
2018-10-21T19:32:41.661Z,32.07
2018-10-21T19:35:10.375Z,29.53
2018-10-21T19:37:37.754Z,31.63
2018-10-21T19:40:05.950Z,31.77
2018-10-21T19:42:33.252Z,32.17
2018-10-21T19:45:00.845Z,31.00
2018-10-21T19:47:28.517Z,30.50
2018-10-21T19:49:55.958Z,32.77
2018-10-21T19:52:23.296Z,31.10
2018-10-21T19:54:50.950Z,31.33
2018-10-21T19:57:18.429Z,33.97
2018-10-21T19:59:45.874Z,38.17
2018-10-21T20:02:13.284Z,48.80
2018-10-21T20:04:40.645Z,38.57
2018-10-21T20:07:08.018Z,38.00
2018-10-21T20:09:35.880Z,45.27
2018-10-21T20:12:03.365Z,38.30
2018-10-21T20:14:30.792Z,37.40
2018-10-21T20:16:58.213Z,38.17
2018-10-21T20:19:25.769Z,37.30
2018-10-21T20:21:53.273Z,38.60
2018-10-21T20:24:20.755Z,40.27
2018-10-21T20:26:48.285Z,43.70
2018-10-21T20:29:15.651Z,43.43
2018-10-21T20:31:43.033Z,41.97
2018-10-21T20:34:10.486Z,41.47
2018-10-21T20:36:38.130Z,43.93
2018-10-21T20:39:07.097Z,42.47
2018-10-21T20:41:34.581Z,43.20
2018-10-21T20:44:01.971Z,41.20
2018-10-21T20:46:29.387Z,42.57
2018-10-21T20:48:56.756Z,40.23
2018-10-21T20:51:24.199Z,38.80
2018-10-21T20:53:51.549Z,40.03
2018-10-21T20:56:18.901Z,38.67
2018-10-21T20:58:46.344Z,41.37
2018-10-21T21:01:13.737Z,38.93
2018-10-21T21:03:41.133Z,40.97
2018-10-21T21:06:08.542Z,38.97
2018-10-21T21:08:35.971Z,39.10
2018-10-21T21:11:03.357Z,37.23
2018-10-21T21:13:30.733Z,34.93
2018-10-21T21:15:58.162Z,37.40
2018-10-21T21:18:25.597Z,35.80
2018-10-21T21:20:53.069Z,35.87
2018-10-21T21:23:20.778Z,39.37
2018-10-21T21:25:48.124Z,39.57
2018-10-21T21:28:15.682Z,40.20
2018-10-21T21:30:43.148Z,40.60
2018-10-21T21:33:10.956Z,39.30
2018-10-21T21:35:38.316Z,39.63
2018-10-21T21:38:05.858Z,43.03
2018-10-21T21:40:33.209Z,43.57
2018-10-21T21:43:00.592Z,43.20
2018-10-21T21:45:27.969Z,45.93
2018-10-21T21:47:55.344Z,46.53
2018-10-21T21:50:22.748Z,46.53
2018-10-21T21:52:50.256Z,44.17
2018-10-21T21:55:17.603Z,42.10
2018-10-21T21:57:45.005Z,42.37
2018-10-21T22:00:13.528Z,40.57
2018-10-21T22:02:40.984Z,42.13
2018-10-21T22:05:08.778Z,41.57
2018-10-21T22:07:36.969Z,42.93
2018-10-21T22:10:04.385Z,44.30
2018-10-21T22:12:31.798Z,43.37
2018-10-21T22:14:59.177Z,43.40
2018-10-21T22:17:26.576Z,43.83
2018-10-21T22:19:53.997Z,42.63
2018-10-21T22:22:21.381Z,43.47
2018-10-21T22:24:48.756Z,45.40
2018-10-21T22:27:16.121Z,44.20
2018-10-21T22:29:43.565Z,45.40
2018-10-21T22:32:10.953Z,45.70
2018-10-21T22:34:38.304Z,44.63
2018-10-21T22:37:05.727Z,44.07
2018-10-21T22:39:33.125Z,42.87
2018-10-21T22:42:00.615Z,41.37
2018-10-21T22:44:28.013Z,43.17
2018-10-21T22:46:55.389Z,41.03
2018-10-21T22:49:22.777Z,39.30
2018-10-21T22:51:50.166Z,38.77
2018-10-21T22:54:17.653Z,36.73
2018-10-21T22:56:44.920Z,38.57
2018-10-21T22:59:12.495Z,41.30
2018-10-21T23:01:39.868Z,39.40
2018-10-21T23:04:07.397Z,38.23
2018-10-21T23:06:34.774Z,37.87
2018-10-21T23:09:02.236Z,37.87
2018-10-21T23:11:29.622Z,39.53
2018-10-21T23:13:57.019Z,40.43
2018-10-21T23:16:24.408Z,39.50
2018-10-21T23:18:56.206Z,38.37
2018-10-21T23:21:23.595Z,37.73
2018-10-21T23:23:51.143Z,38.40
2018-10-21T23:26:18.508Z,37.43
2018-10-21T23:28:45.922Z,38.30
2018-10-21T23:31:13.331Z,37.67
2018-10-21T23:33:40.653Z,37.47
2018-10-21T23:36:08.067Z,37.53
2018-10-21T23:38:35.428Z,34.57
2018-10-21T23:41:02.896Z,38.23
2018-10-21T23:43:30.281Z,38.77
2018-10-21T23:45:57.755Z,37.27
2018-10-21T23:48:25.114Z,37.33
2018-10-21T23:50:52.517Z,36.97
2018-10-21T23:53:19.884Z,38.03
2018-10-21T23:55:47.257Z,38.50
2018-10-21T23:58:14.677Z,36.60
